createdAt,value
2022-12-19T00:01:26.775Z,7.93
2022-12-19T00:04:29.872Z,7.43
2022-12-19T00:07:32.899Z,7.80
2022-12-19T00:10:35.893Z,7.93
2022-12-19T00:13:41.475Z,7.30
2022-12-19T00:16:44.548Z,8.03
2022-12-19T00:19:47.645Z,8.23
2022-12-19T00:22:51.025Z,7.27
2022-12-19T00:25:54.109Z,8.47
2022-12-19T00:29:01.332Z,7.63
2022-12-19T00:32:04.569Z,7.30
2022-12-19T00:35:08.073Z,8.23
2022-12-19T00:38:11.050Z,9.07
2022-12-19T00:41:16.829Z,7.23
2022-12-19T00:44:21.210Z,7.90
2022-12-19T00:47:24.211Z,7.93
2022-12-19T00:50:27.172Z,7.67
2022-12-19T00:53:30.648Z,8.23
2022-12-19T00:56:37.479Z,8.00
2022-12-19T00:59:42.357Z,8.20
2022-12-19T01:02:45.598Z,7.47
2022-12-19T01:05:48.627Z,7.23
2022-12-19T01:08:52.118Z,8.13
2022-12-19T01:12:12.564Z,8.27
2022-12-19T01:15:22.132Z,7.10
2022-12-19T01:18:25.097Z,8.13
2022-12-19T01:21:28.286Z,7.80
2022-12-19T01:24:31.367Z,8.13
2022-12-19T01:27:34.549Z,8.50
2022-12-19T01:30:41.641Z,7.37
2022-12-19T01:33:44.833Z,7.40
2022-12-19T01:36:48.539Z,7.77
2022-12-19T01:39:51.542Z,7.33
2022-12-19T01:42:54.519Z,8.20
2022-12-19T01:46:01.821Z,8.27
2022-12-19T01:49:07.297Z,7.63
2022-12-19T01:52:19.516Z,8.40
2022-12-19T01:55:26.553Z,7.63
2022-12-19T01:58:29.569Z,7.23
2022-12-19T02:01:34.045Z,7.67
2022-12-19T02:04:37.370Z,7.03
2022-12-19T02:07:43.172Z,7.63
2022-12-19T02:10:46.189Z,7.60
2022-12-19T02:13:49.375Z,8.30
2022-12-19T02:17:00.635Z,7.53
2022-12-19T02:20:37.051Z,7.90
2022-12-19T02:24:04.141Z,7.23
2022-12-19T02:27:56.898Z,8.07
2022-12-19T02:31:16.510Z,6.93
2022-12-19T02:34:26.401Z,7.63
2022-12-19T02:37:32.300Z,7.93
2022-12-19T02:40:42.650Z,7.77
2022-12-19T02:43:53.835Z,7.73
2022-12-19T02:47:05.375Z,7.60
2022-12-19T02:50:10.112Z,7.10
2022-12-19T02:53:15.793Z,7.17
2022-12-19T02:56:35.157Z,7.03
2022-12-19T02:59:51.409Z,8.13
2022-12-19T03:03:05.227Z,7.23
2022-12-19T03:06:15.456Z,8.17
2022-12-19T03:09:27.284Z,8.37
2022-12-19T03:12:35.269Z,8.40
2022-12-19T03:15:39.274Z,7.90
2022-12-19T03:18:44.800Z,7.17
2022-12-19T03:21:52.838Z,7.17
2022-12-19T03:24:55.892Z,7.30
2022-12-19T03:28:02.433Z,8.10
2022-12-19T03:31:07.880Z,7.67
2022-12-19T03:34:17.856Z,6.77
2022-12-19T03:37:24.204Z,6.93
2022-12-19T03:40:29.603Z,7.53
2022-12-19T03:43:33.005Z,7.30
2022-12-19T03:46:39.918Z,7.17
2022-12-19T03:49:45.185Z,7.60
2022-12-19T03:52:53.554Z,7.60
2022-12-19T03:56:01.131Z,8.30
2022-12-19T03:59:08.890Z,7.23
2022-12-19T04:02:14.742Z,7.90
2022-12-19T04:05:24.026Z,8.03
2022-12-19T04:08:27.616Z,6.87
2022-12-19T04:11:35.815Z,7.77
2022-12-19T04:14:40.170Z,7.43
2022-12-19T04:17:48.284Z,7.87
2022-12-19T04:21:02.198Z,6.57
2022-12-19T04:24:11.692Z,8.20
2022-12-19T04:27:15.402Z,7.10
2022-12-19T04:30:20.053Z,6.93
2022-12-19T04:33:23.233Z,7.63
2022-12-19T04:36:27.786Z,7.50
2022-12-19T04:39:30.914Z,7.03
2022-12-19T04:42:33.964Z,7.77
2022-12-19T04:45:36.956Z,7.20
2022-12-19T04:48:40.262Z,7.00
2022-12-19T04:51:44.607Z,7.17
2022-12-19T04:54:47.555Z,7.20
2022-12-19T04:57:50.558Z,6.67
2022-12-19T05:00:53.552Z,6.70
2022-12-19T05:04:01.312Z,6.70
2022-12-19T05:07:08.555Z,7.53
2022-12-19T05:10:11.653Z,6.27
2022-12-19T05:13:14.615Z,7.60
2022-12-19T05:16:18.179Z,7.03
2022-12-19T05:19:21.227Z,7.03
2022-12-19T05:22:32.899Z,7.07
2022-12-19T05:25:36.660Z,6.33
2022-12-19T05:28:39.955Z,7.50
2022-12-19T05:31:43.014Z,7.03
2022-12-19T05:34:46.077Z,7.20
2022-12-19T05:37:50.426Z,7.60
2022-12-19T05:40:53.411Z,7.40
2022-12-19T05:43:57.210Z,6.43
2022-12-19T05:47:00.378Z,7.03
2022-12-19T05:50:03.413Z,8.03
2022-12-19T05:53:07.800Z,7.30
2022-12-19T05:56:12.702Z,7.13
2022-12-19T05:59:15.684Z,6.80
2022-12-19T06:02:18.784Z,7.20
2022-12-19T06:05:21.870Z,7.33
2022-12-19T06:08:26.182Z,6.60
2022-12-19T06:11:29.159Z,6.47
2022-12-19T06:14:32.300Z,7.07
2022-12-19T06:17:35.403Z,6.70
2022-12-19T06:20:38.432Z,6.53
2022-12-19T06:23:43.758Z,7.17
2022-12-19T06:26:46.700Z,6.37
2022-12-19T06:29:49.668Z,7.17
2022-12-19T06:32:52.665Z,7.03
2022-12-19T06:35:59.490Z,6.60
2022-12-19T06:39:04.225Z,7.70
2022-12-19T06:42:25.649Z,7.07
2022-12-19T06:45:28.724Z,7.50
2022-12-19T06:48:31.805Z,6.33
2022-12-19T06:51:35.754Z,6.67
2022-12-19T06:54:40.112Z,7.10
2022-12-19T06:57:46.335Z,6.63
2022-12-19T07:00:50.289Z,6.90
2022-12-19T07:03:53.651Z,6.73
2022-12-19T07:06:56.984Z,6.23
2022-12-19T07:10:01.319Z,7.07
2022-12-19T07:13:04.557Z,6.90
2022-12-19T07:16:08.560Z,6.60
2022-12-19T07:19:11.909Z,6.87
2022-12-19T07:22:15.044Z,6.30
2022-12-19T07:25:19.487Z,6.73
2022-12-19T07:28:22.630Z,6.57
2022-12-19T07:31:25.746Z,7.10
2022-12-19T07:34:28.973Z,6.93
2022-12-19T07:37:31.935Z,6.87
2022-12-19T07:40:37.012Z,6.37
2022-12-19T07:43:39.993Z,7.50
2022-12-19T07:46:42.993Z,6.73
2022-12-19T07:49:46.020Z,7.70
2022-12-19T07:52:49.157Z,6.10
2022-12-19T07:55:53.794Z,6.43
2022-12-19T07:58:56.774Z,6.93
2022-12-19T08:01:59.956Z,7.10
2022-12-19T08:05:03.070Z,6.33
2022-12-19T08:08:06.363Z,7.23
2022-12-19T08:11:16.966Z,6.90
2022-12-19T08:14:20.866Z,6.83
2022-12-19T08:17:26.252Z,6.40
2022-12-19T08:20:29.997Z,6.90
2022-12-19T08:23:34.106Z,6.50
2022-12-19T08:26:43.117Z,7.07
2022-12-19T08:29:47.712Z,6.17
2022-12-19T08:32:50.889Z,6.50
2022-12-19T08:35:53.863Z,7.00
2022-12-19T08:38:57.030Z,7.07
2022-12-19T08:42:01.788Z,7.23
2022-12-19T08:45:05.582Z,7.33
2022-12-19T08:48:08.740Z,7.60
2022-12-19T08:51:13.335Z,6.53
2022-12-19T08:54:16.451Z,8.40
2022-12-19T08:57:20.783Z,7.87
2022-12-19T09:00:24.766Z,6.87
2022-12-19T09:04:14.549Z,7.03
2022-12-19T09:06:52.016Z,6.57
2022-12-19T09:09:55.076Z,6.67
2022-12-19T09:12:59.634Z,7.80
2022-12-19T09:16:04.314Z,7.23
2022-12-19T09:19:09.481Z,7.27
2022-12-19T09:22:12.490Z,7.13
2022-12-19T09:25:15.632Z,7.33
2022-12-19T09:28:28.032Z,7.23
2022-12-19T09:31:31.412Z,7.17
2022-12-19T09:34:38.177Z,7.83
2022-12-19T09:37:41.762Z,7.70
2022-12-19T09:40:56.460Z,7.83
2022-12-19T09:44:10.665Z,6.77
2022-12-19T09:47:17.091Z,8.37
2022-12-19T09:50:31.616Z,7.73
2022-12-19T09:53:38.993Z,7.50
2022-12-19T09:56:46.034Z,7.73
2022-12-19T09:59:57.445Z,6.97
2022-12-19T10:03:06.349Z,8.03
2022-12-19T10:07:16.109Z,7.77
2022-12-19T10:12:16.915Z,8.53
2022-12-19T10:13:19.951Z,7.47
2022-12-19T10:16:31.990Z,7.07
2022-12-19T10:19:46.810Z,7.90
2022-12-19T10:23:02.389Z,8.47
2022-12-19T10:26:11.890Z,8.43
2022-12-19T10:29:56.944Z,8.33
2022-12-19T10:33:14.330Z,7.83
2022-12-19T10:36:41.982Z,8.07
2022-12-19T10:40:00.397Z,8.40
2022-12-19T10:43:17.069Z,9.07
2022-12-19T10:46:37.033Z,8.47
2022-12-19T10:49:42.002Z,8.20
2022-12-19T10:52:53.902Z,8.70
2022-12-19T10:56:01.781Z,7.70
2022-12-19T10:59:07.033Z,8.60
2022-12-19T11:02:27.417Z,9.33
2022-12-19T11:05:42.282Z,9.63
2022-12-19T11:08:45.343Z,9.67
2022-12-19T11:15:37.216Z,7.77
2022-12-19T11:19:28.646Z,8.60
2022-12-19T11:29:16.269Z,8.17
2022-12-19T11:29:33.696Z,8.83
2022-12-19T11:30:46.250Z,8.30
2022-12-19T11:30:47.279Z,9.03
2022-12-19T11:32:41.159Z,8.37
2022-12-19T11:35:49.220Z,8.10
2022-12-19T11:38:55.097Z,8.00
2022-12-19T11:42:04.682Z,7.17
2022-12-19T11:45:14.263Z,7.80
2022-12-19T11:48:24.935Z,7.00
2022-12-19T11:51:34.422Z,6.47
2022-12-19T11:54:51.471Z,7.27
2022-12-19T11:57:56.041Z,7.23
2022-12-19T12:01:09.990Z,7.33
2022-12-19T12:04:48.095Z,7.03
2022-12-19T12:09:51.198Z,7.57
2022-12-19T12:15:55.883Z,6.93
2022-12-19T12:25:50.280Z,6.57
2022-12-19T12:30:52.319Z,7.03
2022-12-19T12:31:09.709Z,6.70
2022-12-19T12:32:00.368Z,6.63
2022-12-19T12:35:08.605Z,7.20
2022-12-19T12:35:34.977Z,7.70
2022-12-19T12:40:52.252Z,7.10
2022-12-19T12:44:08.118Z,7.03
2022-12-19T12:47:25.640Z,7.90
2022-12-19T12:50:29.410Z,6.50
2022-12-19T12:53:36.205Z,7.23
2022-12-19T12:56:40.557Z,6.73
2022-12-19T12:59:46.794Z,7.87
2022-12-19T13:02:56.328Z,7.30
2022-12-19T13:06:07.743Z,6.50
2022-12-19T13:09:25.058Z,6.63
2022-12-19T13:12:46.875Z,6.53
2022-12-19T13:15:49.970Z,6.60
2022-12-19T13:19:19.608Z,6.73
2022-12-19T13:22:41.279Z,5.87
2022-12-19T13:25:54.760Z,6.60
2022-12-19T13:29:27.565Z,6.50
2022-12-19T13:32:35.047Z,7.13
2022-12-19T13:37:02.969Z,6.00
2022-12-19T13:39:49.601Z,6.07
2022-12-19T13:42:46.988Z,6.67
2022-12-19T13:45:53.010Z,6.50
2022-12-19T13:49:00.587Z,6.93
2022-12-19T13:52:06.119Z,6.57
2022-12-19T13:55:14.686Z,7.63
2022-12-19T13:58:28.970Z,7.20
2022-12-19T14:01:35.284Z,7.57
2022-12-19T14:04:41.954Z,8.13
2022-12-19T14:07:47.507Z,8.70
2022-12-19T14:11:36.207Z,9.03
2022-12-19T14:14:43.621Z,7.47
2022-12-19T14:17:50.321Z,8.23
2022-12-19T14:22:04.809Z,8.97
2022-12-19T14:24:37.954Z,7.83
2022-12-19T14:28:17.163Z,8.40
2022-12-19T14:31:12.488Z,8.43
2022-12-19T14:39:19.705Z,8.33
2022-12-19T14:41:41.356Z,8.37
2022-12-19T14:52:34.136Z,8.57
2022-12-19T14:54:14.925Z,8.60
2022-12-19T14:54:39.876Z,8.93
2022-12-19T14:56:04.169Z,9.67
2022-12-19T14:58:58.173Z,9.67
2022-12-19T15:02:13.665Z,8.63
2022-12-19T15:05:31.035Z,8.70
2022-12-19T15:09:50.744Z,9.93
2022-12-19T15:13:14.100Z,9.47
2022-12-19T15:15:56.620Z,8.60
2022-12-19T15:19:01.801Z,7.77
2022-12-19T15:22:04.812Z,9.10
2022-12-19T15:25:28.460Z,9.03
2022-12-19T15:28:38.810Z,9.10
2022-12-19T15:31:44.448Z,8.23
2022-12-19T15:34:51.458Z,8.87
2022-12-19T15:37:54.882Z,8.93
2022-12-19T15:40:57.904Z,9.17
2022-12-19T15:44:06.611Z,8.90
2022-12-19T15:47:18.568Z,9.13
2022-12-19T15:50:24.473Z,8.50
2022-12-19T15:53:40.179Z,8.63
2022-12-19T15:56:47.309Z,8.70
2022-12-19T15:59:50.708Z,8.50
2022-12-19T16:03:23.979Z,8.90
2022-12-19T16:06:19.133Z,8.50
2022-12-19T16:09:24.143Z,8.90
2022-12-19T16:12:33.853Z,8.53
2022-12-19T16:15:38.387Z,7.67
2022-12-19T16:18:44.433Z,8.80
2022-12-19T16:21:47.483Z,9.30
2022-12-19T16:24:51.105Z,8.83
2022-12-19T16:27:56.691Z,8.60
2022-12-19T16:31:01.393Z,8.70
2022-12-19T16:34:15.210Z,9.60
2022-12-19T16:37:18.427Z,9.43
2022-12-19T16:40:25.405Z,7.83
2022-12-19T16:43:32.745Z,8.63
2022-12-19T16:46:35.796Z,7.90
2022-12-19T16:49:40.824Z,7.90
2022-12-19T16:52:43.868Z,7.43
2022-12-19T16:55:49.051Z,7.60
2022-12-19T16:58:52.486Z,7.80
2022-12-19T17:01:55.754Z,7.47
2022-12-19T17:05:00.196Z,7.00
2022-12-19T17:08:03.203Z,7.50
2022-12-19T17:11:07.653Z,7.23
2022-12-19T17:14:15.973Z,7.13
2022-12-19T17:17:19.121Z,7.57
2022-12-19T17:20:27.096Z,7.57
2022-12-19T17:23:32.469Z,7.30
2022-12-19T17:26:36.130Z,7.17
2022-12-19T17:29:39.373Z,7.47
2022-12-19T17:32:43.231Z,7.37
2022-12-19T17:35:48.017Z,6.47
2022-12-19T17:38:51.219Z,6.67
2022-12-19T17:41:56.294Z,6.87
2022-12-19T17:44:59.287Z,6.63
2022-12-19T17:48:03.762Z,6.77
2022-12-19T17:51:09.680Z,6.93
2022-12-19T17:54:13.597Z,6.63
2022-12-19T17:57:17.687Z,6.83
2022-12-19T18:00:29.957Z,6.50
2022-12-19T18:03:33.589Z,6.30
2022-12-19T18:06:38.232Z,6.17
2022-12-19T18:09:41.307Z,7.13
2022-12-19T18:12:44.811Z,6.83
2022-12-19T18:15:48.259Z,6.97
2022-12-19T18:18:51.368Z,6.97
2022-12-19T18:21:57.123Z,7.27
2022-12-19T18:25:00.333Z,6.93
2022-12-19T18:28:03.541Z,7.87
2022-12-19T18:31:14.565Z,7.23
2022-12-19T18:34:20.067Z,7.40
2022-12-19T18:37:24.436Z,7.27
2022-12-19T18:40:31.661Z,7.30
2022-12-19T18:43:35.112Z,6.37
2022-12-19T18:46:38.678Z,6.73
2022-12-19T18:49:41.723Z,6.50
2022-12-19T18:52:47.368Z,6.87
2022-12-19T18:55:51.714Z,6.77
2022-12-19T18:58:54.978Z,6.13
2022-12-19T19:01:58.108Z,6.67
2022-12-19T19:05:01.147Z,5.87
2022-12-19T19:08:17.109Z,6.67
2022-12-19T19:11:20.657Z,6.43
2022-12-19T19:14:23.736Z,6.23
2022-12-19T19:17:30.755Z,6.60
2022-12-19T19:20:36.167Z,6.50
2022-12-19T19:23:44.105Z,6.37
2022-12-19T19:26:47.134Z,7.20
2022-12-19T19:29:50.361Z,7.17
2022-12-19T19:32:58.284Z,6.80
2022-12-19T19:36:11.339Z,6.33
2022-12-19T19:39:17.155Z,6.53
2022-12-19T19:42:20.206Z,7.17
2022-12-19T19:45:23.457Z,6.40
2022-12-19T19:48:26.490Z,6.10
2022-12-19T19:51:29.671Z,5.93
2022-12-19T19:54:35.707Z,6.17
2022-12-19T19:57:38.700Z,5.20
2022-12-19T20:00:41.764Z,6.30
2022-12-19T20:03:45.502Z,6.00
2022-12-19T20:06:49.389Z,5.23
2022-12-19T20:09:53.734Z,5.77
2022-12-19T20:12:56.717Z,5.67
2022-12-19T20:16:03.608Z,5.53
2022-12-19T20:19:06.623Z,5.77
2022-12-19T20:22:09.681Z,5.27
2022-12-19T20:25:14.150Z,5.63
2022-12-19T20:28:17.838Z,5.70
2022-12-19T20:31:22.700Z,5.10
2022-12-19T20:34:26.600Z,5.27
2022-12-19T20:37:29.612Z,5.20
2022-12-19T20:40:33.989Z,5.13
2022-12-19T20:43:38.152Z,5.10
2022-12-19T20:46:41.182Z,4.83
2022-12-19T20:49:44.553Z,4.83
2022-12-19T20:52:47.589Z,4.80
2022-12-19T20:55:57.843Z,4.70
2022-12-19T20:59:01.751Z,4.70
2022-12-19T21:02:04.944Z,4.80
2022-12-19T21:05:08.837Z,4.77
2022-12-19T21:08:11.886Z,4.23
2022-12-19T21:11:16.753Z,4.83
2022-12-19T21:14:20.015Z,4.40
2022-12-19T21:17:23.064Z,4.57
2022-12-19T21:20:32.396Z,4.10
2022-12-19T21:23:37.204Z,4.90
2022-12-19T21:26:41.569Z,4.40
2022-12-19T21:29:45.912Z,5.10
2022-12-19T21:32:49.823Z,4.30
2022-12-19T21:35:53.049Z,4.97
2022-12-19T21:38:57.807Z,4.60
2022-12-19T21:42:02.141Z,4.53
2022-12-19T21:45:06.045Z,5.00
2022-12-19T21:48:09.062Z,5.10
2022-12-19T21:51:13.011Z,5.10
2022-12-19T21:54:15.996Z,4.97
2022-12-19T21:57:20.323Z,4.80
2022-12-19T22:00:23.645Z,4.60
2022-12-19T22:03:26.713Z,5.23
2022-12-19T22:06:32.033Z,5.03
2022-12-19T22:09:35.363Z,5.17
2022-12-19T22:12:39.921Z,5.10
2022-12-19T22:15:42.924Z,5.03
2022-12-19T22:18:45.945Z,4.70
2022-12-19T22:21:49.445Z,5.00
2022-12-19T22:24:52.429Z,4.70
2022-12-19T22:27:57.664Z,5.00
2022-12-19T22:31:00.786Z,5.03
2022-12-19T22:34:05.789Z,4.90
2022-12-19T22:37:08.859Z,5.10
2022-12-19T22:40:13.300Z,4.70
2022-12-19T22:43:17.688Z,4.77
2022-12-19T22:46:22.688Z,4.80
2022-12-19T22:49:25.735Z,4.80
2022-12-19T22:52:28.992Z,4.90
2022-12-19T22:55:31.956Z,5.10
2022-12-19T22:58:36.734Z,5.17
2022-12-19T23:01:41.862Z,4.50
2022-12-19T23:04:45.134Z,5.07
2022-12-19T23:07:48.108Z,4.53
2022-12-19T23:10:52.039Z,5.03
2022-12-19T23:13:56.467Z,4.87
2022-12-19T23:16:59.528Z,5.47
2022-12-19T23:20:02.599Z,4.87
2022-12-19T23:23:06.128Z,4.87
2022-12-19T23:26:15.512Z,4.90
2022-12-19T23:29:20.507Z,5.27
2022-12-19T23:32:23.556Z,4.47
2022-12-19T23:35:26.563Z,4.53
2022-12-19T23:38:30.105Z,4.67
2022-12-19T23:41:33.099Z,4.03
2022-12-19T23:44:37.589Z,4.57
2022-12-19T23:47:40.621Z,4.20
2022-12-19T23:50:43.580Z,4.10
2022-12-19T23:53:47.045Z,4.17
2022-12-19T23:56:50.008Z,4.17
2022-12-19T23:59:54.311Z,4.40
